createdAt,value
2023-05-06T00:01:15.910Z,101188.34
2023-05-06T00:03:42.413Z,101180.38
2023-05-06T00:06:09.133Z,101178.59
2023-05-06T00:08:35.720Z,101174.84
2023-05-06T00:11:02.092Z,101165.22
2023-05-06T00:13:28.376Z,101161.66
2023-05-06T00:15:54.720Z,101162.72
2023-05-06T00:18:22.774Z,101159.97
2023-05-06T00:20:49.228Z,101154.25
2023-05-06T00:23:15.520Z,101153.25
2023-05-06T00:25:41.901Z,101146.50
2023-05-06T00:28:08.219Z,101136.31
2023-05-06T00:30:34.572Z,101138.63
2023-05-06T00:33:01.011Z,101146.75
2023-05-06T00:35:27.326Z,101143.88
2023-05-06T00:38:07.753Z,101142.16
2023-05-06T00:40:34.113Z,101137.09
2023-05-06T00:43:00.434Z,101129.56
2023-05-06T00:45:26.813Z,101133.91
2023-05-06T00:47:53.338Z,101126.13
2023-05-06T00:50:19.780Z,101132.19
2023-05-06T00:52:46.518Z,101133.53
2023-05-06T00:55:13.073Z,101141.78
2023-05-06T00:57:40.204Z,101137.66
2023-05-06T01:00:11.509Z,101136.06
2023-05-06T01:02:46.372Z,101130.91
2023-05-06T01:05:14.424Z,101131.97
2023-05-06T01:07:43.971Z,101131.97
2023-05-06T01:10:28.917Z,101130.63
2023-05-06T01:13:04.855Z,101133.84
2023-05-06T01:15:38.113Z,101128.13
2023-05-06T01:18:11.708Z,101125.38
2023-05-06T01:20:38.852Z,101134.78
2023-05-06T01:23:12.925Z,101126.56
2023-05-06T01:25:39.296Z,101132.63
2023-05-06T01:28:10.055Z,101133.34
2023-05-06T01:30:40.622Z,101129.03
2023-05-06T01:33:14.634Z,101130.56
2023-05-06T01:35:49.639Z,101132.19
2023-05-06T01:38:21.636Z,101132.56
2023-05-06T01:40:49.967Z,101130.31
2023-05-06T01:43:18.258Z,101133.53
2023-05-06T01:45:49.456Z,101122.03
2023-05-06T01:48:16.704Z,101121.34
2023-05-06T01:50:43.349Z,101124.53
2023-05-06T01:53:09.680Z,101127.94
2023-05-06T01:55:35.996Z,101133.47
2023-05-06T01:58:02.253Z,101121.44
2023-05-06T02:00:28.652Z,101126.34
2023-05-06T02:02:55.029Z,101123.13
2023-05-06T02:05:21.574Z,101128.16
2023-05-06T02:07:47.900Z,101127.81
2023-05-06T02:10:14.228Z,101122.34
2023-05-06T02:12:40.617Z,101115.66
2023-05-06T02:15:07.680Z,101118.25
2023-05-06T02:17:35.694Z,101115.41
2023-05-06T02:20:02.018Z,101115.97
2023-05-06T02:22:28.323Z,101111.41
2023-05-06T02:24:54.639Z,101119.03
2023-05-06T02:27:20.955Z,101114.47
2023-05-06T02:29:47.258Z,101111.50
2023-05-06T02:32:14.034Z,101110.84
2023-05-06T02:34:40.325Z,101115.88
2023-05-06T02:37:06.646Z,101112.78
2023-05-06T02:39:32.957Z,101111.50
2023-05-06T02:41:59.222Z,101111.31
2023-05-06T02:44:25.635Z,101112.56
2023-05-06T02:46:51.941Z,101103.19
2023-05-06T02:49:18.271Z,101104.66
2023-05-06T02:51:44.588Z,101094.25
2023-05-06T02:54:10.971Z,101110.03
2023-05-06T02:56:37.346Z,101104.09
2023-05-06T02:59:03.788Z,101108.56
2023-05-06T03:01:30.195Z,101101.59
2023-05-06T03:03:56.492Z,101105.47
2023-05-06T03:06:22.875Z,101100.69
2023-05-06T03:08:49.146Z,101090.94
2023-05-06T03:11:15.748Z,101093.00
2023-05-06T03:13:42.056Z,101088.69
2023-05-06T03:16:12.042Z,101097.78
2023-05-06T03:18:38.369Z,101100.09
2023-05-06T03:21:04.940Z,101102.72
2023-05-06T03:23:31.963Z,101109.44
2023-05-06T03:25:58.310Z,101110.81
2023-05-06T03:28:24.618Z,101112.88
2023-05-06T03:30:50.908Z,101109.56
2023-05-06T03:33:17.205Z,101114.81
2023-05-06T03:35:43.603Z,101112.88
2023-05-06T03:38:09.978Z,101119.16
2023-05-06T03:40:36.267Z,101114.78
2023-05-06T03:43:02.576Z,101123.47
2023-05-06T03:45:28.962Z,101134.66
2023-05-06T03:47:55.453Z,101127.09
2023-05-06T03:50:21.885Z,101131.56
2023-05-06T03:52:48.229Z,101129.72
2023-05-06T03:55:14.514Z,101126.56
2023-05-06T03:57:40.853Z,101132.94
2023-05-06T04:00:07.730Z,101134.78
2023-05-06T04:02:35.119Z,101132.94
2023-05-06T04:05:01.595Z,101133.13
2023-05-06T04:07:27.901Z,101148.22
2023-05-06T04:09:54.204Z,101141.69
2023-05-06T04:12:20.798Z,101154.31
2023-05-06T04:14:47.744Z,101157.19
2023-05-06T04:17:14.043Z,101153.66
2023-05-06T04:19:40.362Z,101159.91
2023-05-06T04:22:06.630Z,101159.72
2023-05-06T04:24:33.734Z,101164.63
2023-05-06T04:27:00.132Z,101155.03
2023-05-06T04:29:26.964Z,101157.97
2023-05-06T04:31:53.853Z,101154.66
2023-05-06T04:34:20.415Z,101160.44
2023-05-06T04:36:49.483Z,101166.66
2023-05-06T04:39:16.317Z,101167.47
2023-05-06T04:41:42.810Z,101167.00
2023-05-06T04:44:09.140Z,101163.06
2023-05-06T04:46:36.032Z,101171.63
2023-05-06T04:49:02.602Z,101167.16
2023-05-06T04:51:28.895Z,101166.19
2023-05-06T04:53:55.228Z,101167.00
2023-05-06T04:56:21.554Z,101160.81
2023-05-06T04:58:47.851Z,101155.97
2023-05-06T05:01:14.975Z,101154.56
2023-05-06T05:03:41.455Z,101153.03
2023-05-06T05:06:07.797Z,101154.91
2023-05-06T05:08:34.111Z,101149.22
2023-05-06T05:11:00.439Z,101153.22
2023-05-06T05:13:26.749Z,101151.69
2023-05-06T05:15:56.307Z,101154.91
2023-05-06T05:18:22.984Z,101166.56
2023-05-06T05:20:49.395Z,101168.78
2023-05-06T05:23:16.067Z,101172.13
2023-05-06T05:25:42.432Z,101166.50
2023-05-06T05:28:08.720Z,101167.50
2023-05-06T05:30:35.003Z,101170.63
2023-05-06T05:33:01.440Z,101169.38
2023-05-06T05:35:27.830Z,101171.28
2023-05-06T05:37:54.660Z,101161.38
2023-05-06T05:40:20.989Z,101165.41
2023-05-06T05:42:47.268Z,101164.53
2023-05-06T05:45:13.615Z,101162.47
2023-05-06T05:47:40.014Z,101161.78
2023-05-06T05:50:06.861Z,101169.59
2023-05-06T05:52:33.175Z,101160.53
2023-05-06T05:54:59.549Z,101158.59
2023-05-06T05:57:25.859Z,101156.66
2023-05-06T05:59:52.171Z,101157.28
2023-05-06T06:02:18.601Z,101160.84
2023-05-06T06:04:44.926Z,101166.13
2023-05-06T06:07:11.521Z,101164.25
2023-05-06T06:09:38.274Z,101171.38
2023-05-06T06:12:04.642Z,101171.38
2023-05-06T06:14:30.945Z,101170.16
2023-05-06T06:16:57.306Z,101169.50
2023-05-06T06:19:23.630Z,101172.66
2023-05-06T06:21:49.990Z,101170.06
2023-05-06T06:24:16.341Z,101170.69
2023-05-06T06:26:42.630Z,101166.75
2023-05-06T06:29:08.966Z,101167.19
2023-05-06T06:31:35.375Z,101166.13
2023-05-06T06:34:06.273Z,101160.03
2023-05-06T06:36:32.932Z,101164.63
2023-05-06T06:38:59.266Z,101158.44
2023-05-06T06:41:26.603Z,101165.25
2023-05-06T06:43:52.979Z,101161.13
2023-05-06T06:46:19.472Z,101163.38
2023-05-06T06:48:45.824Z,101166.88
2023-05-06T06:51:12.104Z,101167.00
2023-05-06T06:53:38.432Z,101177.19
2023-05-06T06:56:08.505Z,101183.75
2023-05-06T06:58:34.832Z,101174.84
2023-05-06T07:01:01.158Z,101180.84
2023-05-06T07:03:27.463Z,101184.03
2023-05-06T07:05:53.750Z,101180.50
2023-05-06T07:08:21.514Z,101186.22
2023-05-06T07:10:48.011Z,101192.72
2023-05-06T07:13:14.516Z,101184.97
2023-05-06T07:15:40.996Z,101194.56
2023-05-06T07:18:07.301Z,101185.97
2023-05-06T07:20:33.615Z,101180.31
2023-05-06T07:22:59.977Z,101199.66
2023-05-06T07:25:27.364Z,101201.25
2023-05-06T07:27:53.683Z,101196.84
2023-05-06T07:30:22.873Z,101194.50
2023-05-06T07:32:49.583Z,101181.97
2023-05-06T07:35:16.106Z,101189.22
2023-05-06T07:37:42.399Z,101194.38
2023-05-06T07:40:08.947Z,101201.09
2023-05-06T07:42:35.367Z,101197.25
2023-05-06T07:45:01.752Z,101199.69
2023-05-06T07:47:29.557Z,101205.97
2023-05-06T07:49:56.229Z,101213.25
2023-05-06T07:52:22.936Z,101210.91
2023-05-06T07:54:49.351Z,101222.78
2023-05-06T07:57:16.070Z,101220.25
2023-05-06T07:59:49.321Z,101227.13
2023-05-06T08:02:16.022Z,101238.91
2023-05-06T08:04:42.969Z,101243.38
2023-05-06T08:07:10.268Z,101242.47
2023-05-06T08:09:36.921Z,101253.19
2023-05-06T08:12:03.670Z,101254.66
2023-05-06T08:14:30.044Z,101264.94
2023-05-06T08:16:56.350Z,101263.63
2023-05-06T08:19:22.808Z,101276.16
2023-05-06T08:21:49.190Z,101272.09
2023-05-06T08:24:15.577Z,101272.00
2023-05-06T08:26:41.983Z,101273.34
2023-05-06T08:29:08.295Z,101273.34
2023-05-06T08:31:34.665Z,101267.59
2023-05-06T08:34:01.139Z,101263.28
2023-05-06T08:36:27.460Z,101270.56
2023-05-06T08:38:53.765Z,101268.88
2023-05-06T08:41:21.533Z,101267.75
2023-05-06T08:43:48.644Z,101279.00
2023-05-06T08:46:15.259Z,101283.50
2023-05-06T08:48:41.720Z,101285.81
2023-05-06T08:51:08.418Z,101284.19
2023-05-06T08:53:35.112Z,101286.41
2023-05-06T08:56:06.326Z,101283.94
2023-05-06T08:58:35.978Z,101283.72
2023-05-06T09:01:03.131Z,101296.31
2023-05-06T09:03:29.798Z,101298.72
2023-05-06T09:05:56.766Z,101295.34
2023-05-06T09:08:23.217Z,101302.41
2023-05-06T09:10:49.595Z,101287.94
2023-05-06T09:13:17.554Z,101297.59
2023-05-06T09:15:44.724Z,101286.34
2023-05-06T09:18:11.456Z,101289.38
2023-05-06T09:20:42.381Z,101287.22
2023-05-06T09:23:09.507Z,101290.19
2023-05-06T09:25:36.662Z,101291.72
2023-05-06T09:28:03.750Z,101294.47
2023-05-06T09:30:30.127Z,101296.13
2023-05-06T09:32:57.009Z,101294.59
2023-05-06T09:35:34.975Z,101302.63
2023-05-06T09:38:01.246Z,101308.44
2023-05-06T09:40:29.113Z,101306.72
2023-05-06T09:42:56.102Z,101310.13
2023-05-06T09:45:24.193Z,101316.31
2023-05-06T09:47:53.734Z,101312.38
2023-05-06T09:50:23.865Z,101311.00
2023-05-06T09:52:50.684Z,101310.66
2023-05-06T09:55:20.952Z,101309.78
2023-05-06T09:57:50.330Z,101311.25
2023-05-06T10:00:17.097Z,101313.91
2023-05-06T10:02:44.291Z,101314.94
2023-05-06T10:05:12.429Z,101327.22
2023-05-06T10:07:39.803Z,101321.63
2023-05-06T10:10:10.986Z,101328.88
2023-05-06T10:12:37.480Z,101325.69
2023-05-06T10:15:04.492Z,101327.69
2023-05-06T10:17:31.572Z,101330.34
2023-05-06T10:20:01.684Z,101327.44
2023-05-06T10:22:30.768Z,101317.78
2023-05-06T10:25:03.872Z,101316.38
2023-05-06T10:27:31.030Z,101317.09
2023-05-06T10:29:59.378Z,101319.13
2023-05-06T10:32:27.128Z,101316.69
2023-05-06T10:34:55.045Z,101318.28
2023-05-06T10:37:25.902Z,101316.13
2023-05-06T10:39:56.460Z,101323.69
2023-05-06T10:42:26.733Z,101322.06
2023-05-06T10:45:00.187Z,101324.47
2023-05-06T10:47:26.999Z,101327.44
2023-05-06T10:50:12.222Z,101337.06
2023-05-06T10:52:45.348Z,101327.78
2023-05-06T10:55:28.038Z,101323.53
2023-05-06T10:57:56.608Z,101336.22
2023-05-06T11:00:23.280Z,101327.47
2023-05-06T11:02:51.622Z,101331.56
2023-05-06T11:05:18.107Z,101340.31
2023-05-06T11:07:44.466Z,101342.38
2023-05-06T11:10:11.330Z,101342.38
2023-05-06T11:12:44.946Z,101345.13
2023-05-06T11:15:27.495Z,101352.03
2023-05-06T11:17:55.849Z,101347.84
2023-05-06T11:20:22.838Z,101356.22
2023-05-06T11:22:49.463Z,101359.56
2023-05-06T11:25:35.946Z,101354.97
2023-05-06T11:28:06.875Z,101350.94
2023-05-06T11:30:33.255Z,101361.84
2023-05-06T11:33:05.417Z,101354.84
2023-05-06T11:35:37.709Z,101375.06
2023-05-06T11:38:04.712Z,101372.31
2023-05-06T11:40:31.242Z,101378.44
2023-05-06T11:43:10.315Z,101371.59
2023-05-06T11:45:40.033Z,101375.69
2023-05-06T11:48:06.580Z,101376.56
2023-05-06T11:50:32.993Z,101373.31
2023-05-06T11:52:59.293Z,101381.06
2023-05-06T11:55:26.056Z,101386.13
2023-05-06T11:57:53.151Z,101379.41
2023-05-06T12:00:20.462Z,101383.69
2023-05-06T12:02:46.832Z,101388.53
2023-05-06T12:05:13.683Z,101385.78
2023-05-06T12:07:42.587Z,101386.16
2023-05-06T12:10:09.513Z,101396.31
2023-05-06T12:12:36.078Z,101395.25
2023-05-06T12:15:03.801Z,101389.63
2023-05-06T12:17:30.241Z,101399.00
2023-05-06T12:19:56.700Z,101395.59
2023-05-06T12:22:24.680Z,101391.56
2023-05-06T12:24:51.167Z,101410.53
2023-05-06T12:27:33.509Z,101413.25
2023-05-06T12:30:00.660Z,101415.63
2023-05-06T12:32:27.161Z,101422.13
2023-05-06T12:34:54.060Z,101434.69
2023-05-06T12:37:27.703Z,101425.22
2023-05-06T12:39:56.340Z,101429.88
2023-05-06T12:42:24.745Z,101427.91
2023-05-06T12:44:51.112Z,101422.19
2023-05-06T12:47:24.975Z,101426.06
2023-05-06T12:49:52.699Z,101428.16
2023-05-06T12:52:22.698Z,101431.16
2023-05-06T12:54:49.819Z,101422.94
2023-05-06T12:57:16.353Z,101424.06
2023-05-06T12:59:43.647Z,101423.19
2023-05-06T13:02:10.063Z,101417.56
2023-05-06T13:04:36.458Z,101417.19
2023-05-06T13:07:02.808Z,101426.06
2023-05-06T13:09:29.135Z,101437.38
2023-05-06T13:11:55.591Z,101439.09
2023-05-06T13:14:22.510Z,101433.81
2023-05-06T13:16:49.410Z,101444.06
2023-05-06T13:21:46.308Z,101436.66
2023-05-06T13:24:24.676Z,101432.56
2023-05-06T13:26:51.028Z,101438.25
2023-05-06T13:29:17.399Z,101435.16
2023-05-06T13:31:43.673Z,101437.56
2023-05-06T13:34:09.971Z,101446.25
2023-05-06T13:36:36.493Z,101435.03
2023-05-06T13:39:04.194Z,101433.97
2023-05-06T13:41:30.741Z,101442.59
2023-05-06T13:43:57.072Z,101441.50
2023-05-06T13:46:23.473Z,101436.59
2023-05-06T13:48:49.961Z,101444.34
2023-05-06T13:51:16.267Z,101440.59
2023-05-06T13:53:42.754Z,101437.09
2023-05-06T13:56:09.391Z,101438.47
2023-05-06T13:58:36.055Z,101448.13
2023-05-06T14:01:03.477Z,101455.31
2023-05-06T14:03:30.021Z,101450.41
2023-05-06T14:05:56.367Z,101452.34
2023-05-06T14:08:22.705Z,101450.75
2023-05-06T14:10:49.276Z,101452.03
2023-05-06T14:13:15.770Z,101451.56
2023-05-06T14:15:42.147Z,101454.03
2023-05-06T14:18:08.640Z,101449.75
2023-05-06T14:20:34.979Z,101451.16
2023-05-06T14:23:04.024Z,101454.09
2023-05-06T14:25:30.434Z,101457.25
2023-05-06T14:27:56.743Z,101452.84
2023-05-06T14:30:23.170Z,101453.81
2023-05-06T14:32:49.583Z,101457.91
2023-05-06T14:35:16.026Z,101455.22
2023-05-06T14:37:42.399Z,101450.53
2023-05-06T14:40:10.077Z,101456.91
2023-05-06T14:42:36.698Z,101460.84
2023-05-06T14:45:03.644Z,101460.66
2023-05-06T14:47:30.164Z,101471.09
2023-05-06T14:49:56.589Z,101464.59
2023-05-06T14:52:23.101Z,101464.28
2023-05-06T14:54:49.480Z,101473.22
2023-05-06T14:57:15.910Z,101468.72
2023-05-06T14:59:42.297Z,101474.16
2023-05-06T15:02:10.180Z,101472.47
2023-05-06T15:04:36.995Z,101475.22
2023-05-06T15:07:03.467Z,101482.44
2023-05-06T15:09:29.888Z,101482.72
2023-05-06T15:11:57.812Z,101484.06
2023-05-06T15:14:24.204Z,101481.53
2023-05-06T15:16:50.566Z,101491.63
2023-05-06T15:19:16.919Z,101483.13
2023-05-06T15:21:43.975Z,101491.72
2023-05-06T15:24:10.417Z,101497.88
2023-05-06T15:26:36.761Z,101496.53
2023-05-06T15:29:03.352Z,101487.72
2023-05-06T15:31:31.319Z,101493.34
2023-05-06T15:34:00.375Z,101487.72
2023-05-06T15:36:27.480Z,101487.72
2023-05-06T15:39:00.201Z,101493.84
2023-05-06T15:41:28.453Z,101497.06
2023-05-06T15:43:56.410Z,101493.56
2023-05-06T15:46:22.873Z,101496.09
2023-05-06T15:48:54.178Z,101493.84
2023-05-06T15:51:28.877Z,101492.41
2023-05-06T15:53:55.284Z,101497.78
2023-05-06T15:56:22.233Z,101493.34
2023-05-06T15:58:49.748Z,101490.72
2023-05-06T16:01:16.883Z,101489.31
2023-05-06T16:03:47.833Z,101490.19
2023-05-06T16:06:15.181Z,101493.47
2023-05-06T16:08:41.493Z,101496.00
2023-05-06T16:11:08.871Z,101506.06
2023-05-06T16:13:35.229Z,101497.50
2023-05-06T16:16:01.769Z,101499.78
2023-05-06T16:18:28.242Z,101503.75
2023-05-06T16:20:54.602Z,101508.59
2023-05-06T16:23:21.692Z,101502.88
2023-05-06T16:25:48.349Z,101506.63
2023-05-06T16:28:14.803Z,101502.22
2023-05-06T16:30:44.419Z,101507.66
2023-05-06T16:33:12.004Z,101511.50
2023-05-06T16:35:38.583Z,101508.88
2023-05-06T16:38:04.954Z,101519.84
2023-05-06T16:40:31.687Z,101523.56
2023-05-06T16:42:58.117Z,101525.09
2023-05-06T16:45:24.454Z,101514.06
2023-05-06T16:47:50.812Z,101517.53
2023-05-06T16:50:17.296Z,101520.63
2023-05-06T16:52:43.679Z,101518.34
2023-05-06T16:55:10.191Z,101521.56
2023-05-06T16:57:36.596Z,101521.56
2023-05-06T17:00:03.358Z,101528.63
2023-05-06T17:02:29.765Z,101524.91
2023-05-06T17:04:56.202Z,101526.41
2023-05-06T17:07:22.504Z,101525.34
2023-05-06T17:09:48.844Z,101528.63
2023-05-06T17:12:15.623Z,101521.50
2023-05-06T17:14:42.752Z,101526.56
2023-05-06T17:17:09.105Z,101526.84
2023-05-06T17:19:35.501Z,101527.97
2023-05-06T17:22:01.904Z,101530.81
2023-05-06T17:24:28.302Z,101538.50
2023-05-06T17:26:54.706Z,101529.50
2023-05-06T17:29:22.129Z,101535.91
2023-05-06T17:31:49.621Z,101530.63
2023-05-06T17:34:16.065Z,101538.63
2023-05-06T17:36:42.411Z,101545.56
2023-05-06T17:39:09.413Z,101542.09
2023-05-06T17:41:35.889Z,101543.63
2023-05-06T17:44:02.253Z,101537.25
2023-05-06T17:46:28.733Z,101538.81
2023-05-06T17:48:55.091Z,101541.94
2023-05-06T17:51:21.839Z,101528.69
2023-05-06T17:53:48.165Z,101543.41
2023-05-06T17:56:14.554Z,101540.38
2023-05-06T17:58:41.001Z,101541.16
2023-05-06T18:01:07.456Z,101541.94
2023-05-06T18:03:33.962Z,101547.75
2023-05-06T18:06:00.598Z,101549.03
2023-05-06T18:08:27.007Z,101549.16
2023-05-06T18:10:53.705Z,101558.38
2023-05-06T18:13:20.266Z,101562.78
2023-05-06T18:15:46.731Z,101561.19
2023-05-06T18:18:13.148Z,101565.50
2023-05-06T18:20:39.885Z,101565.22
2023-05-06T18:23:07.529Z,101566.03
2023-05-06T18:25:34.245Z,101558.63
2023-05-06T18:28:00.728Z,101562.78
2023-05-06T18:30:27.209Z,101565.19
2023-05-06T18:32:55.963Z,101559.72
2023-05-06T18:35:23.171Z,101561.03
2023-05-06T18:37:49.496Z,101564.84
2023-05-06T18:40:16.143Z,101560.66
2023-05-06T18:42:42.529Z,101566.50
2023-05-06T18:45:09.397Z,101573.06
2023-05-06T18:47:37.542Z,101568.72
2023-05-06T18:50:04.023Z,101572.25
2023-05-06T18:52:30.772Z,101576.81
2023-05-06T18:54:57.147Z,101576.16
2023-05-06T18:57:24.278Z,101583.09
2023-05-06T18:59:50.929Z,101579.06
2023-05-06T19:02:17.360Z,101579.56
2023-05-06T19:04:44.004Z,101574.75
2023-05-06T19:07:11.049Z,101576.00
2023-05-06T19:09:37.397Z,101578.41
2023-05-06T19:12:04.003Z,101586.16
2023-05-06T19:14:32.289Z,101578.91
2023-05-06T19:16:58.904Z,101581.41
2023-05-06T19:19:25.332Z,101576.69
2023-05-06T19:21:51.695Z,101569.75
2023-05-06T19:24:18.109Z,101568.94
2023-05-06T19:26:44.659Z,101580.38
2023-05-06T19:29:11.016Z,101581.88
2023-05-06T19:31:37.378Z,101583.47
2023-05-06T19:34:03.940Z,101580.38
2023-05-06T19:36:30.495Z,101585.22
2023-05-06T19:38:56.919Z,101587.53
2023-05-06T19:41:23.270Z,101581.84
2023-05-06T19:43:51.229Z,101587.31
2023-05-06T19:46:17.685Z,101581.19
2023-05-06T19:48:45.251Z,101590.66
2023-05-06T19:51:11.619Z,101586.78
2023-05-06T19:53:38.097Z,101585.44
2023-05-06T19:56:07.985Z,101588.19
2023-05-06T19:58:34.400Z,101597.56
2023-05-06T20:01:00.808Z,101593.81
2023-05-06T20:03:27.309Z,101591.50
2023-05-06T20:05:53.734Z,101603.19
2023-05-06T20:08:20.088Z,101591.44
2023-05-06T20:10:47.614Z,101597.41
2023-05-06T20:13:13.978Z,101594.34
2023-05-06T20:15:41.525Z,101593.22
2023-05-06T20:18:08.024Z,101599.63
2023-05-06T20:20:34.605Z,101600.13
2023-05-06T20:23:03.697Z,101605.16
2023-05-06T20:25:30.178Z,101602.63
2023-05-06T20:27:56.905Z,101607.28
2023-05-06T20:30:23.291Z,101613.25
2023-05-06T20:32:51.897Z,101611.09
2023-05-06T20:35:18.514Z,101618.91
2023-05-06T20:37:44.984Z,101623.69
2023-05-06T20:40:11.565Z,101623.88
2023-05-06T20:42:37.901Z,101615.78
2023-05-06T20:45:04.459Z,101623.88
2023-05-06T20:47:31.001Z,101623.69
2023-05-06T20:49:58.060Z,101625.44
2023-05-06T20:52:24.437Z,101614.53
2023-05-06T20:54:50.790Z,101618.41
2023-05-06T20:57:17.494Z,101622.25
2023-05-06T20:59:43.996Z,101634.19
2023-05-06T21:02:10.706Z,101630.03
2023-05-06T21:04:37.224Z,101626.94
2023-05-06T21:07:03.574Z,101630.81
2023-05-06T21:09:29.918Z,101633.72
2023-05-06T21:11:56.295Z,101624.38
2023-05-06T21:14:24.707Z,101633.53
2023-05-06T21:16:51.899Z,101623.41
2023-05-06T21:19:18.517Z,101629.53
2023-05-06T21:21:44.974Z,101634.50
2023-05-06T21:24:11.977Z,101632.44
2023-05-06T21:26:38.918Z,101630.16
2023-05-06T21:29:05.279Z,101630.53
2023-05-06T21:31:31.815Z,101635.34
2023-05-06T21:33:58.709Z,101629.06
2023-05-06T21:36:25.292Z,101628.25
2023-05-06T21:39:01.962Z,101626.06
2023-05-06T21:41:28.308Z,101627.81
2023-05-06T21:43:54.835Z,101634.09
2023-05-06T21:46:21.155Z,101630.69
2023-05-06T21:48:47.565Z,101634.38
2023-05-06T21:51:13.877Z,101632.97
2023-05-06T21:53:40.194Z,101637.28
2023-05-06T21:56:06.508Z,101641.00
2023-05-06T21:58:32.834Z,101643.44
2023-05-06T22:00:59.192Z,101642.13
2023-05-06T22:03:27.220Z,101645.34
2023-05-06T22:05:53.616Z,101636.63
2023-05-06T22:08:19.942Z,101643.25
2023-05-06T22:10:46.292Z,101643.41
2023-05-06T22:13:12.700Z,101648.72
2023-05-06T22:15:39.056Z,101646.47
2023-05-06T22:18:05.933Z,101634.97
2023-05-06T22:20:33.002Z,101649.81
2023-05-06T22:22:59.354Z,101646.09
2023-05-06T22:25:25.778Z,101646.06
2023-05-06T22:27:52.167Z,101651.88
2023-05-06T22:30:18.571Z,101656.84
2023-05-06T22:32:44.940Z,101653.13
2023-05-06T22:35:11.451Z,101648.13
2023-05-06T22:37:38.001Z,101654.28
2023-05-06T22:40:04.626Z,101657.50
2023-05-06T22:42:30.907Z,101662.03
2023-05-06T22:44:57.252Z,101658.63
2023-05-06T22:47:23.668Z,101662.66
2023-05-06T22:49:50.025Z,101662.03
2023-05-06T22:52:18.910Z,101666.50
2023-05-06T22:54:45.210Z,101664.63
2023-05-06T22:57:11.606Z,101659.94
2023-05-06T22:59:37.919Z,101659.28
2023-05-06T23:02:04.238Z,101657.69
2023-05-06T23:04:30.673Z,101660.09
2023-05-06T23:06:57.359Z,101666.06
2023-05-06T23:09:23.772Z,101658.16
2023-05-06T23:11:50.102Z,101664.94
2023-05-06T23:14:17.272Z,101669.31
2023-05-06T23:16:43.709Z,101670.56
2023-05-06T23:19:10.082Z,101671.09
2023-05-06T23:21:36.492Z,101672.50
2023-05-06T23:24:02.863Z,101666.91
2023-05-06T23:26:29.587Z,101672.56
2023-05-06T23:28:55.953Z,101671.91
2023-05-06T23:31:22.366Z,101674.63
2023-05-06T23:33:48.737Z,101669.66
2023-05-06T23:36:15.900Z,101672.56
2023-05-06T23:38:42.392Z,101663.53
2023-05-06T23:41:08.718Z,101672.22
2023-05-06T23:43:35.094Z,101679.16
2023-05-06T23:46:01.593Z,101671.25
2023-05-06T23:48:27.938Z,101674.00
2023-05-06T23:50:54.513Z,101673.22
2023-05-06T23:53:21.354Z,101671.75
2023-05-06T23:55:47.875Z,101669.81
2023-05-06T23:58:14.344Z,101676.41
